Time;durP1;ratioP1;P1;durP2;ratioP2;P2;SDS_P1;SDS_P2;PMS_P1;PMS_P2;Temp;Humidity;BMP_temperature;BMP_pressure;BME280_temperature;BME280_humidity;BME280_pressure;Samples;Min_cycle;Max_cycle;Signal;HPM_P1;HPM_P2
2022/06/14 00:01:30;;;;;;;;;6.00;6.00;;;;;20.87;39.54;101714.13;5100269;27;45884;-68
2022/06/14 00:03:57;;;;;;;;;7.00;5.67;;;;;20.85;39.59;101716.84;5102256;27;45495;-67
2022/06/14 00:06:27;;;;;;;;;4.33;3.33;;;;;20.84;39.74;101711.41;5100228;27;45382;-68
2022/06/14 00:08:53;;;;;;;;;6.67;6.67;;;;;20.82;39.43;101713.22;5098852;27;45477;-66
2022/06/14 00:11:24;;;;;;;;;7.00;7.00;;;;;20.73;39.81;101709.59;5097506;27;45585;-68
2022/06/14 00:13:53;;;;;;;;;4.00;4.00;;;;;20.77;40.02;101713.22;5095816;27;45505;-68
2022/06/14 00:16:20;;;;;;;;;6.50;6.50;;;;;20.71;39.73;101707.81;5095155;27;45456;-68
2022/06/14 00:18:45;;;;;;;;;7.00;7.00;;;;;20.74;39.99;101713.22;5101090;27;45524;-69
2022/06/14 00:21:11;;;;;;;;;8.00;8.00;;;;;20.71;39.79;101714.13;5101575;27;45257;-68
2022/06/14 00:23:37;;;;;;;;;7.33;7.33;;;;;20.63;39.99;101705.09;5113224;27;46469;-68
2022/06/14 00:26:03;;;;;;;;;6.33;6.33;;;;;20.67;39.89;101715.03;5108090;27;45290;-67
2022/06/14 00:28:31;;;;;;;;;6.00;6.00;;;;;20.60;39.91;101700.50;5102710;27;45416;-67
2022/06/14 00:31:07;;;;;;;;;8.67;5.67;;;;;20.59;39.97;101698.72;5102212;27;45413;-67
2022/06/14 00:33:33;;;;;;;;;6.00;6.00;;;;;20.54;39.96;101705.97;5098761;27;45461;-67
2022/06/14 00:36:04;;;;;;;;;8.00;6.33;;;;;20.49;40.05;101704.13;5098217;27;45562;-68
2022/06/14 00:38:30;;;;;;;;;4.33;4.33;;;;;20.34;40.10;101686.03;5089676;27;46957;-66
2022/06/14 00:40:58;;;;;;;;;5.67;4.00;;;;;20.30;40.17;101671.56;5095163;27;45492;-66
2022/06/14 00:43:25;;;;;;;;;6.00;5.00;;;;;20.46;40.24;101706.84;5102668;27;45958;-67
2022/06/14 00:45:51;;;;;;;;;6.00;5.67;;;;;20.41;40.13;101713.19;5106084;27;45677;-67
2022/06/14 00:48:26;;;;;;;;;5.33;5.33;;;;;20.40;40.20;101713.19;5100131;27;46056;-68
2022/06/14 00:50:59;;;;;;;;;5.33;5.33;;;;;20.33;40.59;101714.97;5102994;27;45424;-67
2022/06/14 00:53:42;;;;;;;;;6.00;6.00;;;;;20.17;40.75;101684.19;5098076;27;45442;-66
2022/06/14 00:56:16;;;;;;;;;6.33;5.67;;;;;20.27;40.90;101708.66;5105371;27;45519;-68
2022/06/14 00:58:53;;;;;;;;;6.50;6.00;;;;;19.98;40.88;101675.13;5100925;27;45360;-67
2022/06/14 01:01:23;;;;;;;;;10.33;6.00;;;;;20.21;41.27;101698.66;5081815;27;45473;-67
2022/06/14 01:03:55;;;;;;;;;6.67;6.67;;;;;20.16;41.23;101698.69;5100289;27;45629;-68
2022/06/14 01:06:43;;;;;;;;;5.67;5.67;;;;;20.14;41.32;101705.88;5110776;27;45472;-68
2022/06/14 01:09:13;;;;;;;;;7.00;4.33;;;;;20.07;41.27;101704.06;5095650;27;45500;-67
2022/06/14 01:11:50;;;;;;;;;3.33;3.33;;;;;20.04;41.53;101704.97;5100643;27;45515;-67
2022/06/14 01:14:20;;;;;;;;;5.00;4.67;;;;;20.00;41.45;101692.31;5105291;27;45461;-68
2022/06/14 01:16:46;;;;;;;;;11.00;6.33;;;;;19.86;41.30;101680.50;5103597;27;45456;-68
2022/06/14 01:19:18;;;;;;;;;8.67;5.00;;;;;19.95;41.32;101694.09;5103230;27;45360;-67
2022/06/14 01:21:50;;;;;;;;;5.00;3.33;;;;;19.91;41.50;101692.28;5101361;27;45392;-68
2022/06/14 01:24:15;;;;;;;;;5.67;5.33;;;;;19.92;41.40;101698.63;5104231;27;45712;-67
2022/06/14 01:26:41;;;;;;;;;3.00;3.00;;;;;19.81;41.52;101687.72;5100331;27;45370;-67
2022/06/14 01:29:06;;;;;;;;;4.67;4.67;;;;;19.88;41.42;101682.34;5100025;27;46219;-67
2022/06/14 01:31:32;;;;;;;;;3.67;3.67;;;;;19.88;41.51;101686.84;5104515;27;45358;-67
2022/06/14 01:34:03;;;;;;;;;3.00;3.00;;;;;19.67;41.52;101655.13;5097303;27;45496;-67
2022/06/14 01:36:38;;;;;;;;;3.00;3.00;;;;;19.81;41.67;101683.19;5114088;27;45439;-67
2022/06/14 01:39:07;;;;;;;;;3.67;3.67;;;;;19.79;41.76;101679.59;5097368;27;46646;-68
2022/06/14 01:41:48;;;;;;;;;5.67;4.00;;;;;19.75;41.72;101682.25;5106685;27;45508;-69
2022/06/14 01:44:20;;;;;;;;;4.67;4.67;;;;;19.68;41.98;101681.31;5101565;27;45425;-67
2022/06/14 01:47:12;;;;;;;;;5.67;5.67;;;;;19.62;42.04;101682.22;5107673;27;45622;-67
2022/06/14 01:53:20;;;;;;;;;6.00;5.00;;;;;19.55;42.40;101674.03;5100778;27;45362;-68
2022/06/14 01:56:16;;;;;;;;;6.33;4.00;;;;;19.13;42.72;101612.44;5102846;27;45343;-68
2022/06/14 01:59:08;;;;;;;;;6.67;4.67;;;;;19.44;42.63;101663.16;5105216;27;45502;-68
2022/06/14 02:01:41;;;;;;;;;3.33;3.33;;;;;19.02;42.72;101592.50;5103058;27;45432;-67
2022/06/14 02:04:39;;;;;;;;;3.67;3.00;;;;;19.39;42.62;101654.13;5099630;27;45471;-68
2022/06/14 02:07:21;;;;;;;;;5.67;3.00;;;;;19.33;42.90;101652.25;5083080;27;45585;-67
2022/06/14 02:10:03;;;;;;;;;5.00;5.00;;;;;19.31;42.95;101657.66;5099603;27;45228;-68
2022/06/14 02:12:38;;;;;;;;;3.00;3.00;;;;;18.86;42.82;101572.59;5097029;27;46123;-67
2022/06/14 02:15:16;;;;;;;;;5.67;4.00;;;;;19.29;43.06;101648.63;5096440;27;45411;-68
2022/06/14 02:18:15;;;;;;;;;4.00;2.67;;;;;19.28;42.89;101646.81;5096735;27;45537;-67
2022/06/14 02:20:56;;;;;;;;;4.00;2.00;;;;;19.20;43.00;101634.13;5114279;27;45271;-68
2022/06/14 02:23:24;;;;;;;;;3.00;3.00;;;;;19.16;43.23;101625.09;5098152;27;46704;-67
2022/06/14 02:26:14;;;;;;;;;5.00;3.67;;;;;19.17;42.91;101636.81;5103029;27;45373;-68
2022/06/14 02:28:53;;;;;;;;;5.67;4.00;;;;;19.29;43.08;101651.34;5082253;27;45485;-67
2022/06/14 02:31:30;;;;;;;;;3.00;3.00;;;;;19.28;43.10;101651.34;5098616;27;45342;-67
2022/06/14 02:34:03;;;;;;;;;4.00;4.00;;;;;19.24;43.09;101650.41;5096713;27;45436;-65
2022/06/14 02:36:38;;;;;;;;;3.33;3.33;;;;;19.16;43.30;101649.47;5099699;27;46094;-67
2022/06/14 02:39:14;;;;;;;;;5.33;4.00;;;;;19.13;43.47;101652.16;5100811;27;45501;-67
2022/06/14 02:41:57;;;;;;;;;4.00;2.00;;;;;19.11;43.26;101643.13;5106612;27;45389;-67
2022/06/14 02:44:29;;;;;;;;;5.67;4.33;;;;;19.09;43.62;101645.81;5122028;27;45071;-67
2022/06/14 02:47:07;;;;;;;;;4.00;4.00;;;;;19.07;43.55;101646.69;5119900;27;45465;-68
2022/06/14 02:49:55;;;;;;;;;4.67;4.67;;;;;19.06;43.75;101647.63;5102509;27;45330;-67
2022/06/14 02:52:29;;;;;;;;;5.00;3.33;;;;;19.05;43.68;101643.09;5120145;27;44997;-69
2022/06/14 02:55:07;;;;;;;;;4.00;4.00;;;;;19.03;43.86;101647.59;5104121;27;45450;-67
2022/06/14 02:57:38;;;;;;;;;5.00;3.00;;;;;18.99;43.84;101649.38;5098176;27;45395;-68
2022/06/14 03:00:13;;;;;;;;;7.00;3.67;;;;;18.99;44.00;101634.91;5097961;27;45454;-67
2022/06/14 03:03:00;;;;;;;;;4.00;4.00;;;;;18.86;43.67;101625.81;5101417;27;45651;-66
2022/06/14 03:05:45;;;;;;;;;3.33;3.33;;;;;18.81;44.31;101623.06;5104317;27;45535;-67
2022/06/14 03:08:20;;;;;;;;;3.00;3.00;;;;;18.86;44.21;101639.34;5108617;27;45397;-68
2022/06/14 03:11:24;;;;;;;;;5.33;5.00;;;;;18.81;44.34;101630.25;5103393;27;45445;-68
2022/06/14 03:14:26;;;;;;;;;3.33;3.00;;;;;18.75;44.52;101628.44;5096346;27;45581;-68
2022/06/14 03:17:29;;;;;;;;;3.67;3.67;;;;;18.71;44.52;101626.59;5104917;27;47261;-68
2022/06/14 03:20:08;;;;;;;;;3.00;3.00;;;;;18.67;44.65;101625.66;5104874;27;45485;-68
2022/06/14 03:23:00;;;;;;;;;9.00;4.00;;;;;18.65;45.03;101632.88;5097880;27;45531;-67
2022/06/14 03:25:39;;;;;;;;;3.00;3.00;;;;;18.52;45.43;101631.88;5105738;27;45432;-68
2022/06/14 03:28:13;;;;;;;;;4.00;4.00;;;;;18.40;45.45;101635.38;5099726;27;46332;-68
2022/06/14 03:30:47;;;;;;;;;4.00;4.00;;;;;18.43;45.41;101631.81;5099992;27;45401;-67
2022/06/14 03:33:34;;;;;;;;;4.33;4.33;;;;;18.46;45.47;101631.81;5106262;27;45472;-67
2022/06/14 03:36:01;;;;;;;;;4.00;3.00;;;;;18.48;45.44;101634.53;5100142;27;45397;-67
2022/06/14 03:38:34;;;;;;;;;4.67;3.33;;;;;18.50;44.97;101632.78;5097768;27;46179;-68
2022/06/14 03:40:59;;;;;;;;;3.33;2.67;;;;;18.51;45.32;101634.56;5102140;27;45304;-67
2022/06/14 03:43:26;;;;;;;;;5.00;3.33;;;;;18.48;45.19;101629.13;5102091;27;45504;-68
2022/06/14 03:45:59;;;;;;;;;5.67;3.00;;;;;18.48;45.28;101624.63;5102991;27;45473;-68
2022/06/14 03:48:27;;;;;;;;;5.00;5.00;;;;;18.31;45.26;101596.53;5099970;27;45574;-67
2022/06/14 03:51:18;;;;;;;;;3.00;3.00;;;;;18.54;45.26;101629.19;5100118;27;45546;-69
2022/06/14 03:53:46;;;;;;;;;4.00;3.00;;;;;18.54;45.24;101626.47;5096664;27;45393;-69
2022/06/14 03:56:20;;;;;;;;;4.00;4.00;;;;;18.55;45.16;101623.78;5096275;27;45512;-67
2022/06/14 03:59:08;;;;;;;;;6.33;5.33;;;;;18.54;45.29;101629.19;5096668;27;45645;-68
2022/06/14 04:01:46;;;;;;;;;5.00;5.00;;;;;18.49;45.38;101626.44;5105231;27;45277;-68
2022/06/14 04:04:43;;;;;;;;;5.00;4.00;;;;;18.47;45.74;101625.53;5100407;27;45377;-67
2022/06/14 04:07:15;;;;;;;;;4.00;4.00;;;;;18.49;45.19;101629.13;5104815;27;45466;-67
2022/06/14 04:09:50;;;;;;;;;3.00;3.00;;;;;18.50;45.26;101630.06;5096019;27;45429;-68
2022/06/14 04:12:25;;;;;;;;;4.00;4.00;;;;;18.46;45.48;101629.09;5094791;27;45560;-68
2022/06/14 04:15:02;;;;;;;;;6.00;5.00;;;;;18.46;45.60;101631.81;5106340;27;45502;-68
2022/06/14 04:17:38;;;;;;;;;3.00;3.00;;;;;18.47;45.50;101628.22;5102636;27;45602;-68
2022/06/14 04:20:34;;;;;;;;;5.67;5.00;;;;;18.43;45.58;101634.53;5107038;27;46300;-68
2022/06/14 04:23:43;;;;;;;;;5.00;4.00;;;;;18.37;45.92;101643.47;5101789;27;45658;-67
2022/06/14 04:26:19;;;;;;;;;4.00;4.00;;;;;18.26;45.53;101614.53;5051737;27;45478;-68
2022/06/14 04:29:06;;;;;;;;;3.00;3.00;;;;;18.37;45.73;101631.75;5105338;27;45467;-68
2022/06/14 04:31:40;;;;;;;;;5.67;5.67;;;;;18.30;45.68;101624.50;5101526;27;46425;-69
2022/06/14 04:34:21;;;;;;;;;4.00;4.00;;;;;18.38;45.68;101630.88;5095422;27;45409;-68
2022/06/14 04:37:00;;;;;;;;;3.00;3.00;;;;;18.34;45.56;101620.91;5097718;27;45313;-68
2022/06/14 04:39:53;;;;;;;;;3.00;3.00;;;;;18.12;45.76;101584.66;5103496;27;45466;-68
2022/06/14 04:42:30;;;;;;;;;4.00;4.00;;;;;18.37;45.86;101627.25;5094460;27;46405;-68
2022/06/14 04:45:09;;;;;;;;;4.00;4.00;;;;;18.23;45.96;101607.28;5099231;27;45562;-68
2022/06/14 04:47:42;;;;;;;;;4.00;4.00;;;;;18.36;46.05;101625.44;5099243;27;45382;-67
2022/06/14 04:50:29;;;;;;;;;7.75;6.00;;;;;18.39;45.63;101619.13;5098168;27;45431;-68
2022/06/14 04:53:08;;;;;;;;;6.25;6.00;;;;;18.12;45.61;101576.56;5099148;27;45380;-68
2022/06/14 04:55:43;;;;;;;;;4.67;4.67;;;;;18.42;45.88;101620.06;5100887;27;45454;-68
2022/06/14 04:58:15;;;;;;;;;7.33;4.67;;;;;18.25;45.68;101586.56;5102651;27;45557;-68
2022/06/14 05:00:46;;;;;;;;;3.00;3.00;;;;;18.43;45.61;101621.00;5100433;27;45512;-68
2022/06/14 05:03:38;;;;;;;;;4.33;4.33;;;;;18.45;45.55;101624.59;5107224;27;45407;-68
2022/06/14 05:06:13;;;;;;;;;6.25;5.75;;;;;18.43;45.93;101612.88;5097699;27;45551;-67
2022/06/14 05:08:47;;;;;;;;;6.00;4.00;;;;;18.45;46.12;101621.91;5103490;27;48631;-68
2022/06/14 05:11:22;;;;;;;;;6.67;5.00;;;;;18.48;45.86;101623.72;5122561;27;45315;-69
2022/06/14 05:14:07;;;;;;;;;11.00;6.00;;;;;18.50;45.90;101624.66;5127844;27;45428;-67
2022/06/14 05:17:12;;;;;;;;;14.00;12.75;;;;;18.49;45.80;101615.59;5117378;27;45096;-70
2022/06/14 05:19:55;;;;;;;;;6.00;5.00;;;;;18.46;45.92;101604.75;5077285;28;45223;-69
2022/06/14 05:22:50;;;;;;;;;6.00;5.00;;;;;18.59;45.80;101619.28;5101303;27;45179;-67
2022/06/14 05:25:16;;;;;;;;;30.25;28.50;;;;;18.60;45.52;101621.13;5121447;27;45973;-67
2022/06/14 05:27:46;;;;;;;;;5.00;4.50;;;;;18.63;45.80;101618.44;5120718;27;45264;-67
2022/06/14 05:30:30;;;;;;;;;13.50;7.25;;;;;18.64;45.56;101620.22;5117672;27;44851;-67
2022/06/14 05:33:35;;;;;;;;;5.50;4.00;;;;;18.69;45.41;101617.56;5118817;27;45877;-67
2022/06/14 05:36:08;;;;;;;;;5.33;5.33;;;;;18.67;45.34;101604.00;5118614;27;45683;-67
2022/06/14 05:38:51;;;;;;;;;4.67;4.67;;;;;18.64;45.06;101598.56;5119842;27;45674;-69
2022/06/14 05:41:31;;;;;;;;;4.67;4.00;;;;;18.76;45.25;101619.44;5124444;27;45247;-66
2022/06/14 05:44:07;;;;;;;;;5.25;5.25;;;;;18.74;45.00;101623.91;5123460;27;45244;-67
2022/06/14 05:46:38;;;;;;;;;4.67;4.67;;;;;18.60;45.04;101594.94;5111745;27;46064;-66
2022/06/14 05:49:21;;;;;;;;;7.67;6.00;;;;;18.37;44.85;101548.78;5111393;27;45281;-67
2022/06/14 05:51:53;;;;;;;;;5.00;5.00;;;;;18.83;45.01;101623.09;5110144;27;46795;-68
2022/06/14 05:54:33;;;;;;;;;8.00;8.00;;;;;18.85;44.99;101618.59;5116167;27;45271;-66
2022/06/14 05:57:05;;;;;;;;;8.33;4.67;;;;;18.92;44.60;101624.06;5113454;27;46387;-67
2022/06/14 05:59:40;;;;;;;;;4.00;4.00;;;;;18.95;44.88;101626.78;5104107;27;45423;-66
2022/06/14 06:02:52;;;;;;;;;5.00;5.00;;;;;18.98;44.63;101615.06;5100691;27;45285;-68
2022/06/14 06:05:25;;;;;;;;;13.25;13.00;;;;;18.88;44.65;101602.38;5049131;28;45136;-67
2022/06/14 06:08:05;;;;;;;;;6.25;6.25;;;;;18.91;44.46;101586.16;5049133;28;45701;-68
2022/06/14 06:10:36;;;;;;;;;5.75;5.75;;;;;19.11;44.40;101611.53;5086878;27;45374;-67
2022/06/14 06:13:15;;;;;;;;;7.75;6.25;;;;;19.14;44.24;101603.41;5108811;27;45718;-67
2022/06/14 06:16:02;;;;;;;;;6.50;6.50;;;;;19.21;43.89;101612.47;5103118;27;45595;-66
2022/06/14 06:18:49;;;;;;;;;7.50;5.00;;;;;19.08;43.74;101580.81;5105594;27;46362;-67
2022/06/14 06:21:34;;;;;;;;;7.25;7.25;;;;;19.29;43.97;101605.28;5101372;27;45265;-67
2022/06/14 06:24:21;;;;;;;;;45.25;36.50;;;;;19.38;43.31;101603.50;5098505;27;45420;-65
2022/06/14 06:26:55;;;;;;;;;9.00;6.00;;;;;19.09;43.76;101536.56;5101454;27;45295;-67
2022/06/14 06:29:34;;;;;;;;;12.00;7.25;;;;;19.56;43.22;101598.16;5095920;27;46422;-68
2022/06/14 06:32:01;;;;;;;;;6.00;6.00;;;;;19.60;43.28;101599.97;5097549;27;45299;-67
2022/06/14 06:34:27;;;;;;;;;8.25;8.00;;;;;19.66;43.15;101599.06;5095780;27;45295;-67
2022/06/14 06:37:04;;;;;;;;;10.50;10.50;;;;;19.36;43.21;101527.63;5098687;27;45414;-67
2022/06/14 06:39:36;;;;;;;;;6.00;6.00;;;;;19.83;42.77;101585.56;5102108;27;45328;-67
2022/06/14 06:42:10;;;;;;;;;4.25;4.25;;;;;19.82;42.54;101581.97;5105172;27;45320;-68
2022/06/14 06:44:38;;;;;;;;;4.67;4.00;;;;;19.98;42.15;101593.75;5097121;27;45650;-67
2022/06/14 06:47:16;;;;;;;;;6.00;6.00;;;;;19.99;42.14;101598.25;5103211;27;45590;-68
2022/06/14 06:50:00;;;;;;;;;7.00;5.00;;;;;20.02;41.93;101598.25;5098818;27;45505;-67
2022/06/14 06:52:37;;;;;;;;;9.33;5.00;;;;;19.96;42.22;101576.56;5100398;27;45652;-68
2022/06/14 06:55:10;;;;;;;;;7.67;6.33;;;;;20.03;41.75;101580.22;5096862;27;45443;-68
2022/06/14 06:57:40;;;;;;;;;6.33;5.67;;;;;20.18;41.39;101592.88;5109059;27;45324;-67
2022/06/14 07:00:07;;;;;;;;;6.00;5.67;;;;;20.12;41.49;101565.72;5095519;27;46202;-67
2022/06/14 07:02:51;;;;;;;;;8.00;7.67;;;;;20.23;41.31;101582.91;5100446;27;45464;-68
2022/06/14 07:05:17;;;;;;;;;6.33;6.33;;;;;20.38;41.24;101582.91;5100521;27;45419;-68
2022/06/14 07:07:46;;;;;;;;;7.00;7.00;;;;;20.50;41.23;101589.22;5096747;27;45320;-67
2022/06/14 07:10:21;;;;;;;;;14.50;12.50;;;;;20.60;40.86;101586.47;5094924;27;46087;-67
2022/06/14 07:12:57;;;;;;;;;13.00;6.00;;;;;20.64;41.03;101582.00;5095371;27;45779;-68
2022/06/14 07:15:33;;;;;;;;;18.00;12.67;;;;;20.59;40.86;101554.81;5100252;27;45435;-67
2022/06/14 07:18:14;;;;;;;;;7.33;6.00;;;;;20.80;40.70;101575.63;5102628;27;45717;-67
2022/06/14 07:20:55;;;;;;;;;16.75;14.25;;;;;20.88;40.42;101567.44;5098647;27;46076;-68
2022/06/14 07:23:24;;;;;;;;;11.25;8.50;;;;;20.94;40.06;101559.28;5101068;27;45596;-70
2022/06/14 07:26:18;;;;;;;;;8.00;8.00;;;;;21.01;40.22;101548.41;5097491;27;45562;-67
2022/06/14 07:29:18;;;;;;;;;5.33;5.33;;;;;21.22;39.57;101564.59;5106178;27;45646;-67
2022/06/14 07:31:55;;;;;;;;;7.67;6.00;;;;;21.39;39.60;101560.91;5095297;27;46240;-67
2022/06/14 07:34:21;;;;;;;;;8.33;7.67;;;;;21.46;39.13;101549.06;5094775;27;45353;-67
2022/06/14 07:37:05;;;;;;;;;7.00;7.00;;;;;21.61;38.64;101556.25;5105213;27;45482;-67
2022/06/14 07:39:37;;;;;;;;;5.00;2.67;;;;;21.78;38.16;101561.56;5101472;27;45404;-68
2022/06/14 07:42:20;;;;;;;;;8.00;4.67;;;;;21.90;37.54;101550.63;5101039;27;46699;-68
2022/06/14 07:45:28;;;;;;;;;5.33;5.00;;;;;22.08;37.85;101555.00;5097047;27;45448;-68
2022/06/14 07:47:56;;;;;;;;;7.33;5.33;;;;;22.22;37.38;101553.09;5088490;27;45492;-69
2022/06/14 07:50:36;;;;;;;;;4.67;4.67;;;;;22.29;36.87;101540.34;5099675;27;45696;-69
2022/06/14 07:53:14;;;;;;;;;4.00;4.00;;;;;22.35;36.61;101523.03;5096153;27;45471;-67
2022/06/14 07:56:00;;;;;;;;;8.67;5.67;;;;;22.62;36.42;101549.97;5096018;27;45342;-67
2022/06/14 07:58:30;;;;;;;;;17.00;15.67;;;;;22.52;36.48;101523.78;5094974;27;45573;-67
2022/06/14 08:01:08;;;;;;;;;11.00;9.33;;;;;22.66;36.48;101536.34;5108602;27;45634;-67
2022/06/14 08:03:45;;;;;;;;;10.33;8.00;;;;;22.60;36.50;101521.88;5099377;27;46208;-67
2022/06/14 08:06:20;;;;;;;;;10.00;6.00;;;;;22.84;36.40;101537.94;5096309;27;45371;-67
2022/06/14 08:08:56;;;;;;;;;9.00;6.00;;;;;22.86;36.07;101530.66;5095424;27;45386;-67
2022/06/14 08:11:53;;;;;;;;;10.67;6.00;;;;;23.00;36.06;101528.66;5108314;27;45431;-68
2022/06/14 08:14:39;;;;;;;;;13.00;10.00;;;;;23.04;35.55;101516.78;5095374;27;46227;-69
2022/06/14 08:17:08;;;;;;;;;5.67;5.67;;;;;23.09;34.89;101503.13;5075517;27;45469;-68
2022/06/14 08:19:51;;;;;;;;;9.67;8.00;;;;;23.18;34.78;101525.72;5098287;27;45322;-68
2022/06/14 08:22:25;;;;;;;;;11.33;5.00;;;;;23.26;34.83;101524.72;5104290;27;45263;-68
2022/06/14 08:24:59;;;;;;;;;4.00;4.00;;;;;23.29;34.42;101521.94;5096008;27;47221;-68
2022/06/14 08:27:32;;;;;;;;;3.00;2.00;;;;;23.39;34.10;101518.16;5096396;27;45375;-68
2022/06/14 08:30:04;;;;;;;;;3.00;3.00;;;;;23.23;33.98;101516.56;5100305;27;45541;-68
2022/06/14 08:32:34;;;;;;;;;7.00;5.00;;;;;23.17;34.22;101523.91;5098305;27;45307;-67
2022/06/14 08:35:14;;;;;;;;;7.67;6.67;;;;;23.15;34.02;101523.03;5110324;27;46342;-68
2022/06/14 08:37:46;;;;;;;;;3.33;2.67;;;;;23.18;34.41;101516.63;5102257;27;45489;-68
2022/06/14 08:40:23;;;;;;;;;7.67;6.00;;;;;23.27;34.63;101521.97;5105995;27;45371;-68
2022/06/14 08:43:08;;;;;;;;;14.00;11.67;;;;;23.36;33.73;101513.66;5102495;27;45528;-68
2022/06/14 08:45:48;;;;;;;;;6.33;4.33;;;;;23.48;33.44;101509.84;5086251;27;47035;-68
2022/06/14 08:48:31;;;;;;;;;6.67;5.00;;;;;23.61;33.38;101507.84;5100204;27;45543;-68
2022/06/14 08:51:12;;;;;;;;;5.67;5.67;;;;;23.58;33.20;101502.44;5090010;27;45681;-68
2022/06/14 08:54:05;;;;;;;;;7.00;7.00;;;;;23.68;33.43;101501.34;5079596;27;45516;-68
2022/06/14 08:56:30;;;;;;;;;4.67;3.67;;;;;23.66;32.34;101503.22;5097382;27;46153;-69
2022/06/14 08:59:17;;;;;;;;;3.67;3.67;;;;;23.60;32.70;101511.47;5100571;27;45273;-68
2022/06/14 09:02:07;;;;;;;;;6.00;4.33;;;;;23.52;32.93;101511.59;5101314;27;45229;-66
2022/06/14 09:04:54;;;;;;;;;5.67;5.67;;;;;23.54;32.65;101511.56;5098565;27;45583;-69
2022/06/14 09:08:03;;;;;;;;;6.67;5.00;;;;;23.58;32.46;101487.88;5097169;27;46988;-66
2022/06/14 09:11:14;;;;;;;;;24.50;20.50;;;;;23.72;32.72;101483.09;5103421;27;45604;-67
2022/06/14 09:14:01;;;;;;;;;4.33;4.33;;;;;24.06;32.30;101507.13;5105338;27;45448;-65
2022/06/14 09:16:57;;;;;;;;;5.00;4.00;;;;;24.20;32.19;101515.06;5106157;27;45446;-66
2022/06/14 09:19:41;;;;;;;;;6.00;4.33;;;;;24.28;31.45;101510.38;5099938;27;46124;-67
2022/06/14 09:22:35;;;;;;;;;5.33;4.33;;;;;24.34;31.81;101496.59;5106783;27;45348;-66
2022/06/14 09:25:20;;;;;;;;;7.33;6.67;;;;;24.19;31.32;101456.84;5091135;27;45444;-67
2022/06/14 09:27:57;;;;;;;;;6.67;5.33;;;;;24.52;30.83;101502.63;5098122;27;45440;-67
2022/06/14 09:30:56;;;;;;;;;7.00;7.00;;;;;24.49;30.94;101492.66;5109371;27;46204;-69
2022/06/14 09:33:50;;;;;;;;;6.00;5.67;;;;;24.43;31.64;101496.41;5099135;27;45310;-68
2022/06/14 09:37:07;;;;;;;;;6.00;4.67;;;;;24.49;31.23;101491.78;5084087;27;45566;-68
2022/06/14 09:39:41;;;;;;;;;6.00;6.00;;;;;24.55;30.88;101489.88;5063429;27;45368;-67
2022/06/14 09:42:19;;;;;;;;;5.00;5.00;;;;;24.66;31.58;101486.91;5104911;27;46116;-65
2022/06/14 09:45:35;;;;;;;;;21.67;18.33;;;;;24.80;31.14;101486.63;5099878;27;45443;-68
2022/06/14 09:48:46;;;;;;;;;12.00;7.00;;;;;24.71;30.96;101486.81;5065369;27;45539;-67
2022/06/14 09:51:26;;;;;;;;;10.00;6.67;;;;;24.44;31.37;101480.94;5079162;27;45434;-66
2022/06/14 09:54:03;;;;;;;;;5.00;4.00;;;;;24.48;31.40;101501.78;5097801;27;45412;-66
2022/06/14 09:56:50;;;;;;;;;6.00;4.33;;;;;24.41;31.31;101492.81;5096292;27;45472;-68
2022/06/14 09:59:37;;;;;;;;;7.33;6.67;;;;;24.44;31.37;101492.75;5103042;27;45441;-66
2022/06/14 10:02:13;;;;;;;;;6.67;6.00;;;;;24.60;31.92;101496.13;5106602;27;45670;-67
2022/06/14 10:05:13;;;;;;;;;8.33;8.00;;;;;24.72;31.16;101492.25;5097621;27;45389;-67
2022/06/14 10:07:49;;;;;;;;;7.33;6.00;;;;;24.81;30.92;101480.22;5096731;27;45400;-67
2022/06/14 10:10:29;;;;;;;;;3.00;3.00;;;;;24.68;31.40;101444.03;5106202;27;45743;-67
2022/06/14 10:12:57;;;;;;;;;6.33;4.00;;;;;24.93;30.91;101470.84;5103836;27;45447;-66
2022/06/14 10:15:30;;;;;;;;;3.00;3.00;;;;;24.90;30.97;101484.59;5102539;27;45418;-67
2022/06/14 10:18:06;;;;;;;;;9.00;7.00;;;;;24.82;31.07;101466.50;5101191;27;45311;-67
2022/06/14 10:20:55;;;;;;;;;7.33;5.67;;;;;24.93;30.74;101476.31;5099560;27;45373;-67
2022/06/14 10:23:44;;;;;;;;;6.67;5.33;;;;;24.69;30.44;101443.13;5101250;27;45582;-67
2022/06/14 10:29:25;;;;;;;;;11.00;5.00;;;;;24.81;30.77;101451.06;5101395;27;45460;-67
2022/06/14 10:32:34;;;;;;;;;5.00;5.00;;;;;25.02;30.23;101467.91;5095475;27;45412;-67
2022/06/14 10:35:09;;;;;;;;;6.67;5.00;;;;;25.09;29.87;101461.34;5098412;27;45426;-67
2022/06/14 10:38:10;;;;;;;;;4.67;4.67;;;;;25.10;30.01;101468.66;5102475;27;45938;-68
2022/06/14 10:40:57;;;;;;;;;5.67;5.67;;;;;25.07;30.40;101454.16;5099349;27;45539;-67
2022/06/14 10:43:44;;;;;;;;;5.33;5.00;;;;;25.17;30.35;101461.19;5099989;27;45338;-67
2022/06/14 10:46:16;;;;;;;;;11.00;9.00;;;;;25.18;30.21;101455.69;5087753;27;45433;-68
2022/06/14 10:49:22;;;;;;;;;14.00;14.00;;;;;25.30;30.58;101450.91;5099519;27;45460;-67
2022/06/14 10:52:11;;;;;;;;;9.33;6.67;;;;;25.36;30.23;101456.25;5096378;27;45566;-66
2022/06/14 10:54:57;;;;;;;;;6.67;5.33;;;;;25.27;29.87;101421.78;5101556;27;45522;-67
2022/06/14 10:57:40;;;;;;;;;7.00;5.00;;;;;25.41;30.02;101439.69;5108786;27;45475;-67
2022/06/14 11:00:38;;;;;;;;;11.00;9.33;;;;;25.43;30.30;101436.00;5095915;27;46420;-69
2022/06/14 11:03:25;;;;;;;;;2.67;2.00;;;;;25.06;30.00;101360.25;5025833;27;45724;-67
2022/06/14 11:05:50;;;;;;;;;7.67;6.33;;;;;25.43;30.40;101426.91;5094916;27;45525;-68
2022/06/14 11:08:37;;;;;;;;;7.00;5.67;;;;;25.30;29.59;101397.09;5109349;27;45443;-67
2022/06/14 11:11:22;;;;;;;;;6.00;6.00;;;;;25.49;29.34;101419.44;5097072;27;45470;-68
2022/06/14 11:14:12;;;;;;;;;7.00;7.00;;;;;25.50;29.10;101423.94;5101155;27;45464;-67
2022/06/14 11:17:02;;;;;;;;;9.33;7.67;;;;;25.59;29.38;101420.09;5103172;27;45533;-67
2022/06/14 11:19:45;;;;;;;;;7.67;4.00;;;;;25.31;30.16;101367.91;5098332;27;45436;-70
2022/06/14 11:22:10;;;;;;;;;5.00;5.00;;;;;25.55;30.27;101402.84;5096768;27;46305;-68
2022/06/14 11:24:43;;;;;;;;;8.00;6.67;;;;;25.38;29.93;101366.81;5097406;27;45346;-66
2022/06/14 11:27:49;;;;;;;;;9.00;8.00;;;;;25.48;30.29;101395.75;5100199;27;45489;-67
2022/06/14 11:30:36;;;;;;;;;6.00;5.33;;;;;25.47;30.14;101383.00;5064159;27;45347;-66
2022/06/14 11:33:35;;;;;;;;;9.00;6.67;;;;;25.48;29.34;101386.66;5094546;27;45583;-69
2022/06/14 11:36:17;;;;;;;;;5.33;5.33;;;;;25.48;29.11;101389.38;5100385;27;45429;-67
2022/06/14 11:39:12;;;;;;;;;6.00;6.00;;;;;25.43;29.67;101374.94;5103655;27;45415;-68
2022/06/14 11:41:44;;;;;;;;;5.00;5.00;;;;;25.47;29.23;101376.63;5099636;27;45377;-67
2022/06/14 11:44:27;;;;;;;;;8.67;6.67;;;;;25.52;29.40;101369.19;5098625;27;45333;-66
2022/06/14 11:47:11;;;;;;;;;6.00;6.00;;;;;25.57;28.35;101361.75;5098730;27;45504;-67
2022/06/14 11:50:08;;;;;;;;;13.67;10.67;;;;;25.17;29.02;101281.59;5099924;27;45514;-68
2022/06/14 11:53:16;;;;;;;;;13.67;12.33;;;;;25.67;28.94;101354.22;5107303;27;45359;-66
2022/06/14 11:56:03;;;;;;;;;10.67;7.33;;;;;25.74;28.97;101350.38;5098791;27;45498;-66
2022/06/14 11:58:57;;;;;;;;;8.67;7.33;;;;;25.74;29.26;101343.06;5095244;27;45517;-68
2022/06/14 12:01:56;;;;;;;;;9.00;7.00;;;;;25.71;29.73;101347.72;5106799;27;45495;-66
2022/06/14 12:04:33;;;;;;;;;7.00;6.00;;;;;25.68;29.68;101334.13;5098254;27;45450;-66
2022/06/14 12:07:36;;;;;;;;;10.67;8.67;;;;;25.65;29.96;101326.88;5101191;27;45372;-66
2022/06/14 12:10:39;;;;;;;;;6.33;6.33;;;;;25.74;29.62;101337.59;5101964;27;45415;-67
2022/06/14 12:13:26;;;;;;;;;9.67;7.00;;;;;25.80;28.95;101336.50;5096081;27;45357;-67
2022/06/14 12:16:10;;;;;;;;;8.00;7.33;;;;;25.79;29.18;101326.53;5096884;27;45499;-67
2022/06/14 12:18:40;;;;;;;;;5.33;5.33;;;;;25.88;29.57;101328.97;5104673;27;45504;-66
2022/06/14 12:21:17;;;;;;;;;5.00;5.00;;;;;25.90;29.49;101334.41;5096248;27;45393;-66
2022/06/14 12:23:48;;;;;;;;;8.00;6.67;;;;;25.93;29.98;101329.75;5105773;27;45275;-65
2022/06/14 12:26:37;;;;;;;;;8.00;7.33;;;;;26.00;29.41;101326.88;5095113;27;45332;-65
2022/06/14 12:29:40;;;;;;;;;10.00;8.33;;;;;26.11;29.43;101319.25;5100663;27;45767;-65
2022/06/14 12:32:28;;;;;;;;;4.33;3.00;;;;;26.14;28.95;101327.38;5043676;28;45711;-66